Time;durP1;ratioP1;P1;durP2;ratioP2;P2;SDS_P1;SDS_P2;PMS_P1;PMS_P2;Temp;Humidity;BMP_temperature;BMP_pressure;BME280_temperature;BME280_humidity;BME280_pressure;Samples;Min_cycle;Max_cycle;Signal;HPM_P1;HPM_P2
2020/12/10 00:00:17;;;;;;;24.35;11.80;;;;;;;2.00;nan;95744.09;4960574;28;20251;-44
2020/12/10 00:02:44;;;;;;;24.77;12.00;;;;;;;2.09;nan;95741.19;4964504;28;20259;-44
2020/12/10 00:05:12;;;;;;;27.27;12.25;;;;;;;2.05;nan;95739.63;4967290;28;20302;-45
2020/12/10 00:07:39;;;;;;;22.08;10.73;;;;;;;2.08;nan;95739.50;4960021;28;20685;-44
2020/12/10 00:10:07;;;;;;;18.98;10.40;;;;;;;2.05;nan;95733.69;4958775;28;20545;-51
2020/12/10 00:12:34;;;;;;;20.65;10.10;;;;;;;1.95;nan;95733.22;4966830;28;20677;-44
2020/12/10 00:15:02;;;;;;;21.00;11.32;;;;;;;1.88;nan;95726.69;4969789;28;20309;-45
2020/12/10 00:17:30;;;;;;;21.98;10.65;;;;;;;1.95;nan;95738.38;4970278;28;20649;-45
2020/12/10 00:19:57;;;;;;;20.08;10.35;;;;;;;1.87;nan;95725.03;4973344;28;20750;-44
2020/12/10 00:22:24;;;;;;;24.33;10.75;;;;;;;1.90;nan;95727.44;4970999;28;20289;-45
2020/12/10 00:24:51;;;;;;;23.02;10.43;;;;;;;1.94;nan;95726.44;4966344;28;20752;-44
2020/12/10 00:27:23;;;;;;;25.65;12.65;;;;;;;1.89;nan;95723.22;4971496;28;20253;-44
2020/12/10 00:29:49;;;;;;;19.73;10.95;;;;;;;1.88;nan;95721.56;4970772;28;20228;-44
2020/12/10 00:32:18;;;;;;;19.95;10.90;;;;;;;1.82;nan;95716.69;4972936;28;20223;-44
2020/12/10 00:34:46;;;;;;;22.35;11.02;;;;;;;1.90;nan;95712.06;4959810;28;20680;-45
2020/12/10 00:37:13;;;;;;;24.23;10.40;;;;;;;1.90;nan;95712.06;4968823;28;20565;-45
2020/12/10 00:39:40;;;;;;;21.63;11.32;;;;;;;1.91;nan;95708.59;4968085;28;20341;-44
2020/12/10 00:42:07;;;;;;;29.73;11.75;;;;;;;1.86;nan;95707.94;4970113;28;20246;-45
2020/12/10 00:44:34;;;;;;;29.52;11.02;;;;;;;1.71;nan;95700.91;4970801;28;20262;-45
2020/12/10 00:47:01;;;;;;;22.25;11.90;;;;;;;1.72;nan;95709.44;4971543;28;20206;-44
2020/12/10 00:49:29;;;;;;;23.02;10.98;;;;;;;1.70;nan;95701.00;4959610;28;20772;-44
2020/12/10 00:51:56;;;;;;;22.98;11.27;;;;;;;1.70;nan;95694.13;4959785;28;20611;-45
2020/12/10 00:54:23;;;;;;;20.55;11.20;;;;;;;1.77;nan;95695.53;4961342;28;20734;-44
2020/12/10 00:56:50;;;;;;;24.63;11.93;;;;;;;1.85;nan;95690.06;4977136;28;20677;-44
2020/12/10 00:59:17;;;;;;;26.38;12.40;;;;;;;1.55;nan;95640.91;4969722;28;20640;-45
2020/12/10 01:01:44;;;;;;;21.63;11.35;;;;;;;1.90;nan;95685.56;4971365;28;20643;-45
2020/12/10 01:04:13;;;;;;;26.52;11.68;;;;;;;1.93;nan;95688.81;4970399;28;20241;-45
2020/12/10 01:06:41;;;;;;;32.15;11.57;;;;;;;1.89;nan;95691.59;4970989;28;20668;-45
2020/12/10 01:09:08;;;;;;;25.65;11.40;;;;;;;1.89;nan;95692.44;4968431;28;20724;-44
2020/12/10 01:11:36;;;;;;;22.88;10.52;;;;;;;1.89;nan;95682.19;4972540;28;20607;-44
2020/12/10 01:14:04;;;;;;;19.80;9.82;;;;;;;1.89;nan;95691.59;4967434;28;20846;-45
2020/12/10 01:16:31;;;;;;;25.13;11.80;;;;;;;1.84;nan;95698.69;4967195;28;20301;-45
2020/12/10 01:18:58;;;;;;;21.27;11.27;;;;;;;1.98;nan;95692.03;4969115;28;20647;-45
2020/12/10 01:21:30;;;;;;;25.80;10.85;;;;;;;2.05;nan;95690.06;4970719;28;20234;-44
2020/12/10 01:23:58;;;;;;;27.85;12.40;;;;;;;1.97;nan;95695.50;4968292;28;20685;-45
2020/12/10 01:26:28;;;;;;;21.73;11.90;;;;;;;1.90;nan;95691.53;4958804;28;20204;-44
2020/12/10 01:28:55;;;;;;;24.27;11.43;;;;;;;1.80;nan;95689.44;4966757;28;20309;-45
2020/12/10 01:31:22;;;;;;;28.73;12.02;;;;;;;1.64;nan;95653.34;4973657;28;20199;-44
2020/12/10 01:33:49;;;;;;;21.98;10.60;;;;;;;1.82;nan;95675.66;4967397;28;20241;-44
2020/12/10 01:36:18;;;;;;;25.40;11.40;;;;;;;1.89;nan;95679.63;4970275;28;20301;-45
2020/12/10 01:38:44;;;;;;;27.40;12.50;;;;;;;1.91;nan;95675.25;4958961;28;20724;-45
2020/12/10 01:41:12;;;;;;;23.70;10.73;;;;;;;1.28;nan;95570.34;4958820;28;20285;-44
2020/12/10 01:43:39;;;;;;;24.27;11.80;;;;;;;1.91;nan;95680.38;4965473;28;20601;-45
2020/12/10 01:46:07;;;;;;;26.20;10.98;;;;;;;1.69;nan;95625.78;4968584;28;20251;-45
2020/12/10 01:48:34;;;;;;;24.75;11.30;;;;;;;2.00;nan;95659.44;4969360;28;20748;-44
2020/12/10 01:51:02;;;;;;;26.55;12.88;;;;;;;2.17;nan;95667.25;4968115;28;20325;-45
2020/12/10 01:53:29;;;;;;;26.85;12.23;;;;;;;2.18;nan;95663.78;4968498;28;20243;-44
2020/12/10 01:55:56;;;;;;;21.98;10.82;;;;;;;2.15;nan;95669.03;4974256;28;20313;-44
2020/12/10 01:58:23;;;;;;;23.38;11.15;;;;;;;2.25;nan;95670.31;4971974;28;21173;-44
2020/12/10 02:00:51;;;;;;;17.50;10.48;;;;;;;2.20;nan;95656.84;4972665;28;20261;-44
2020/12/10 02:03:18;;;;;;;25.35;12.25;;;;;;;2.21;nan;95657.69;4966711;28;20230;-45
2020/12/10 02:05:46;;;;;;;28.10;12.05;;;;;;;2.25;nan;95648.94;4966991;28;20657;-45
2020/12/10 02:08:13;;;;;;;24.60;12.25;;;;;;;2.26;nan;95640.31;4969827;28;20534;-45
2020/12/10 02:10:40;;;;;;;24.13;11.23;;;;;;;2.28;nan;95634.22;4968966;28;20657;-45
2020/12/10 02:13:07;;;;;;;19.35;10.77;;;;;;;2.35;nan;95645.88;4968121;28;20304;-44
2020/12/10 02:15:36;;;;;;;27.67;12.25;;;;;;;2.37;nan;95646.63;4970822;28;20289;-50
2020/12/10 02:18:04;;;;;;;23.30;11.40;;;;;;;2.10;nan;95609.41;4963588;28;20199;-45
2020/12/10 02:20:31;;;;;;;21.52;11.50;;;;;;;2.21;nan;95637.97;4966450;28;20290;-45
2020/12/10 02:23:00;;;;;;;18.83;10.70;;;;;;;2.27;nan;95636.88;4968044;28;20217;-45
2020/12/10 02:25:30;;;;;;;22.08;11.20;;;;;;;2.33;nan;95636.56;4958056;28;20555;-45
2020/12/10 02:27:59;;;;;;;23.23;11.27;;;;;;;2.27;nan;95630.00;4968285;23;20257;-44
2020/12/10 02:30:27;;;;;;;23.67;9.80;;;;;;;2.11;nan;95620.47;4938632;28;20282;-45
2020/12/10 02:32:58;;;;;;;25.90;11.70;;;;;;;2.05;nan;95606.19;4949884;28;20235;-44
2020/12/10 02:35:26;;;;;;;21.40;10.48;;;;;;;2.21;nan;95617.44;4947436;28;20705;-45
2020/12/10 02:37:55;;;;;;;20.23;10.90;;;;;;;2.16;nan;95614.25;4946743;28;20274;-44
2020/12/10 02:40:24;;;;;;;19.92;10.43;;;;;;;2.22;nan;95611.41;4948566;28;20705;-45
2020/12/10 02:42:51;;;;;;;19.88;10.52;;;;;;;2.25;nan;95611.28;4948461;28;20294;-44
2020/12/10 02:45:18;;;;;;;24.63;11.50;;;;;;;2.21;nan;95617.44;4947154;28;20724;-45
2020/12/10 02:47:45;;;;;;;18.70;11.00;;;;;;;2.28;nan;95606.00;4945469;28;20863;-44
2020/12/10 02:50:12;;;;;;;25.45;11.82;;;;;;;2.36;nan;95611.59;4948468;28;20668;-44
2020/12/10 02:52:39;;;;;;;24.17;11.90;;;;;;;2.32;nan;95604.97;4948512;28;20294;-45
2020/12/10 02:55:06;;;;;;;24.95;10.50;;;;;;;2.38;nan;95609.81;4954555;28;20244;-45
2020/12/10 02:57:34;;;;;;;22.48;11.18;;;;;;;2.25;nan;95595.03;4954297;28;20226;-45
2020/12/10 03:00:01;;;;;;;23.35;10.73;;;;;;;2.28;nan;95602.59;4948108;28;20713;-45
2020/12/10 03:02:29;;;;;;;25.73;11.15;;;;;;;2.30;nan;95598.22;4936932;28;20223;-44
2020/12/10 03:04:56;;;;;;;21.15;10.95;;;;;;;2.27;nan;95590.69;4937059;28;20681;-45
2020/12/10 03:07:23;;;;;;;20.25;10.82;;;;;;;2.28;nan;95593.16;4938174;28;20243;-44
2020/12/10 03:09:49;;;;;;;20.38;9.77;;;;;;;2.12;nan;95588.78;4948051;28;20259;-45
2020/12/10 03:12:16;;;;;;;24.63;10.95;;;;;;;1.98;nan;95578.34;4943673;28;20637;-45
2020/12/10 03:14:44;;;;;;;19.60;10.23;;;;;;;1.94;nan;95575.09;4937366;28;20227;-44
2020/12/10 03:17:11;;;;;;;23.90;11.85;;;;;;;2.00;nan;95572.22;4938612;28;20196;-44
2020/12/10 03:19:38;;;;;;;22.08;10.65;;;;;;;2.05;nan;95580.53;4956463;23;20231;-43
2020/12/10 03:22:05;;;;;;;26.85;10.38;;;;;;;2.10;nan;95558.09;4985970;28;20300;-39
2020/12/10 03:24:31;;;;;;;18.63;10.20;;;;;;;2.17;nan;95564.59;4986239;28;20707;-39
2020/12/10 03:26:58;;;;;;;21.58;11.10;;;;;;;2.22;nan;95562.63;4986849;28;20325;-38
2020/12/10 03:29:25;;;;;;;24.75;12.45;;;;;;;2.25;nan;95566.78;4986730;28;20259;-38
2020/12/10 03:31:53;;;;;;;26.25;12.05;;;;;;;2.25;nan;95564.22;4991765;28;20239;-38
2020/12/10 03:34:21;;;;;;;25.45;12.63;;;;;;;2.20;nan;95558.50;4984934;28;20820;-39
2020/12/10 03:36:50;;;;;;;30.13;12.23;;;;;;;2.17;nan;95549.22;4984890;28;21075;-39
2020/12/10 03:39:18;;;;;;;22.08;11.13;;;;;;;2.22;nan;95547.22;4985708;28;20594;-39
2020/12/10 03:41:45;;;;;;;24.98;11.70;;;;;;;2.29;nan;95538.34;4986809;28;20285;-39
2020/12/10 03:44:13;;;;;;;22.55;11.20;;;;;;;2.25;nan;95536.00;4991591;28;20440;-39
2020/12/10 03:46:40;;;;;;;26.20;11.18;;;;;;;2.35;nan;95547.53;4992388;28;20631;-39
2020/12/10 03:49:09;;;;;;;26.40;12.48;;;;;;;2.37;nan;95541.38;4989596;28;20567;-39
2020/12/10 03:51:36;;;;;;;24.38;12.52;;;;;;;2.40;nan;95541.25;4989311;28;20712;-39
2020/12/10 03:54:03;;;;;;;25.15;11.88;;;;;;;2.39;nan;95534.47;4989294;28;20250;-39
2020/12/10 03:56:31;;;;;;;25.52;12.43;;;;;;;2.38;nan;95543.06;4997870;28;20640;-38
2020/12/10 03:58:58;;;;;;;25.88;12.35;;;;;;;2.42;nan;95534.31;4991359;28;20329;-39
2020/12/10 04:01:25;;;;;;;26.33;11.88;;;;;;;2.11;nan;95487.91;4993548;28;20289;-39
2020/12/10 04:03:53;;;;;;;26.30;12.20;;;;;;;2.38;nan;95537.09;4987518;28;20548;-39
2020/12/10 04:06:21;;;;;;;23.90;11.93;;;;;;;2.44;nan;95535.06;4991328;28;20752;-39
2020/12/10 04:08:48;;;;;;;28.02;12.55;;;;;;;2.38;nan;95535.38;4991199;28;20528;-39
2020/12/10 04:11:15;;;;;;;26.48;12.75;;;;;;;2.25;nan;95531.72;4989169;28;20225;-39
2020/12/10 04:13:42;;;;;;;23.30;12.02;;;;;;;2.05;nan;95515.59;4989041;28;20659;-47
2020/12/10 04:16:09;;;;;;;27.77;13.52;;;;;;;1.85;nan;95521.63;4991521;28;20296;-40
2020/12/10 04:18:38;;;;;;;28.25;12.02;;;;;;;1.95;nan;95528.00;4992116;28;20241;-39
2020/12/10 04:21:05;;;;;;;27.75;12.98;;;;;;;1.99;nan;95521.81;4993163;28;20758;-38
2020/12/10 04:23:33;;;;;;;25.67;12.38;;;;;;;2.10;nan;95526.44;4987623;28;20230;-44
2020/12/10 04:26:00;;;;;;;27.92;14.27;;;;;;;2.15;nan;95515.06;4988351;28;20198;-39
2020/12/10 04:28:27;;;;;;;29.77;11.05;;;;;;;2.23;nan;95513.00;4990113;28;20746;-39
2020/12/10 04:30:54;;;;;;;23.15;11.95;;;;;;;2.24;nan;95516.38;4990438;28;20280;-38
2020/12/10 04:33:21;;;;;;;25.00;12.07;;;;;;;2.33;nan;95519.34;4987436;28;20865;-39
2020/12/10 04:35:48;;;;;;;24.42;11.52;;;;;;;2.38;nan;95517.41;4987730;28;20692;-39
2020/12/10 04:38:15;;;;;;;29.70;11.75;;;;;;;2.42;nan;95507.81;4989565;28;20779;-39
2020/12/10 04:40:43;;;;;;;20.50;9.80;;;;;;;2.26;nan;95506.84;4991298;28;20710;-39
2020/12/10 04:43:11;;;;;;;26.02;12.02;;;;;;;2.20;nan;95502.84;4985875;28;20313;-38
2020/12/10 04:45:38;;;;;;;25.90;12.13;;;;;;;2.28;nan;95505.06;4990666;28;20222;-39
2020/12/10 04:48:05;;;;;;;27.70;13.73;;;;;;;2.02;nan;95449.84;4987329;28;20236;-39
2020/12/10 04:50:36;;;;;;;25.42;12.77;;;;;;;2.35;nan;95488.47;4990441;28;20610;-38
2020/12/10 04:53:03;;;;;;;20.85;11.18;;;;;;;2.43;nan;95491.50;4988800;28;20632;-39
2020/12/10 04:55:31;;;;;;;25.35;11.25;;;;;;;2.43;nan;95494.06;4993941;28;20754;-39
2020/12/10 04:58:00;;;;;;;24.33;10.90;;;;;;;2.46;nan;95492.19;4995547;28;20599;-39
2020/12/10 05:00:29;;;;;;;21.23;9.90;;;;;;;2.44;nan;95485.47;4984341;28;20229;-39
2020/12/10 05:02:56;;;;;;;27.73;12.70;;;;;;;2.46;nan;95494.75;4988059;28;20213;-38
2020/12/10 05:05:25;;;;;;;28.73;12.10;;;;;;;2.48;nan;95492.94;4987830;28;20321;-39
2020/12/10 05:07:53;;;;;;;22.75;10.13;;;;;;;2.51;nan;95494.53;4987087;28;20293;-39
2020/12/10 05:10:21;;;;;;;21.90;10.05;;;;;;;2.51;nan;95500.47;4988381;28;20669;-45
2020/12/10 05:12:48;;;;;;;18.98;10.90;;;;;;;2.53;nan;95493.56;4988127;28;20703;-45
2020/12/10 05:15:30;;;;;;;21.75;10.80;;;;;;;2.48;nan;95482.66;4988290;28;20312;-45
2020/12/10 05:18:04;;;;;;;24.83;10.02;;;;;;;2.53;nan;95480.72;4991669;28;20197;-44
2020/12/10 05:20:38;;;;;;;22.20;10.98;;;;;;;2.46;nan;95489.63;4986757;28;20269;-39
2020/12/10 05:23:08;;;;;;;20.48;10.35;;;;;;;2.47;nan;95496.41;4993953;23;20221;-72
2020/12/10 05:25:49;;;;;;;21.85;10.00;;;;;;;2.13;nan;95485.28;4977880;28;20657;-70
2020/12/10 05:28:16;;;;;;;22.80;10.98;;;;;;;2.00;nan;95479.03;4975452;28;20324;-72
2020/12/10 05:30:45;;;;;;;22.20;11.63;;;;;;;2.13;nan;95486.09;4974389;28;20188;-72
2020/12/10 05:33:13;;;;;;;25.95;11.57;;;;;;;2.24;nan;95481.28;4977519;28;20288;-69
2020/12/10 05:35:41;;;;;;;25.58;11.55;;;;;;;2.33;nan;95482.56;4977927;28;20212;-68
2020/12/10 05:38:11;;;;;;;23.17;10.10;;;;;;;2.37;nan;95477.22;4977062;28;20298;-69
2020/12/10 05:40:38;;;;;;;20.38;10.60;;;;;;;2.43;nan;95482.06;4977916;28;20599;-69
2020/12/10 05:43:06;;;;;;;20.33;9.65;;;;;;;2.39;nan;95478.00;4976813;28;20748;-67
2020/12/10 05:45:38;;;;;;;22.42;10.32;;;;;;;2.25;nan;95480.38;4977813;28;20713;-68
2020/12/10 05:48:05;;;;;;;31.58;11.45;;;;;;;2.14;nan;95477.47;4977347;28;20600;-69
2020/12/10 05:50:34;;;;;;;17.33;9.82;;;;;;;2.20;nan;95472.06;4978217;28;20288;-69
2020/12/10 05:53:07;;;;;;;23.88;11.40;;;;;;;2.32;nan;95473.22;4977424;28;20261;-70
2020/12/10 05:55:35;;;;;;;20.38;9.95;;;;;;;2.35;nan;95481.59;4975859;28;20195;-68
2020/12/10 05:58:03;;;;;;;34.80;11.07;;;;;;;2.19;nan;95479.81;4976959;28;20495;-68
2020/12/10 06:00:30;;;;;;;25.80;11.70;;;;;;;2.18;nan;95476.44;4975885;28;20221;-69
2020/12/10 06:03:01;;;;;;;21.08;10.60;;;;;;;2.28;nan;95480.22;4974642;28;20297;-67
2020/12/10 06:05:29;;;;;;;22.67;10.88;;;;;;;2.32;nan;95476.63;4975790;28;20697;-70
2020/12/10 06:08:01;;;;;;;27.05;12.80;;;;;;;2.30;nan;95475.03;4976471;28;20658;-69
2020/12/10 06:10:28;;;;;;;26.42;11.43;;;;;;;2.30;nan;95488.69;4976785;28;20708;-69
2020/12/10 06:12:55;;;;;;;24.27;10.50;;;;;;;2.32;nan;95488.59;4976798;28;20195;-68
2020/12/10 06:15:23;;;;;;;26.13;11.65;;;;;;;2.36;nan;95482.44;4976991;28;20197;-69
2020/12/10 06:18:03;;;;;;;23.85;12.35;;;;;;;2.32;nan;95481.75;4976355;28;20301;-68
2020/12/10 06:20:39;;;;;;;32.13;13.43;;;;;;;2.11;nan;95477.63;4977812;28;20492;-69
2020/12/10 06:23:36;;;;;;;26.38;9.82;;;;;;;2.14;nan;95474.91;4975745;28;20234;-70
2020/12/10 06:26:34;;;;;;;29.15;12.88;;;;;;;2.24;nan;95485.56;4960528;28;20220;-69
2020/12/10 06:29:17;;;;;;;26.88;11.63;;;;;;;2.29;nan;95481.06;4973703;28;20238;-69
2020/12/10 06:32:05;;;;;;;30.65;12.07;;;;;;;2.36;nan;95478.13;4972537;28;20295;-71
2020/12/10 06:34:33;;;;;;;24.88;12.90;;;;;;;2.43;nan;95481.25;4974761;28;20689;-69
2020/12/10 06:37:22;;;;;;;21.90;12.05;;;;;;;2.47;nan;95475.88;4977707;28;20300;-69
2020/12/10 06:39:50;;;;;;;29.33;13.30;;;;;;;2.47;nan;95485.31;4975967;28;20312;-69
2020/12/10 06:42:17;;;;;;;23.35;12.43;;;;;;;2.47;nan;95480.16;4976002;28;20277;-68
2020/12/10 06:44:45;;;;;;;29.85;13.85;;;;;;;2.39;nan;95472.00;4971830;28;20261;-70
2020/12/10 06:47:12;;;;;;;29.83;14.43;;;;;;;2.39;nan;95478.00;4975645;28;20663;-69
2020/12/10 06:49:39;;;;;;;30.45;12.27;;;;;;;2.47;nan;95465.59;4975046;28;20339;-69
2020/12/10 06:52:14;;;;;;;34.88;14.23;;;;;;;2.56;nan;95475.41;4975887;28;20271;-69
2020/12/10 06:55:13;;;;;;;32.17;13.93;;;;;;;2.56;nan;95480.56;4975136;28;20673;-69
2020/12/10 06:57:53;;;;;;;27.38;12.00;;;;;;;2.45;nan;95482.81;4975537;28;20225;-70
2020/12/10 07:00:46;;;;;;;28.50;12.95;;;;;;;2.35;nan;95486.72;4975455;28;20214;-68
2020/12/10 07:03:19;;;;;;;25.38;12.98;;;;;;;2.43;nan;95484.63;4975237;28;20237;-68
2020/12/10 07:05:46;;;;;;;26.27;12.90;;;;;;;2.45;nan;95481.97;4972193;28;20240;-69
2020/12/10 07:08:15;;;;;;;29.88;13.80;;;;;;;2.34;nan;95468.81;4975608;28;20735;-68
2020/12/10 07:10:45;;;;;;;26.08;12.55;;;;;;;2.35;nan;95483.34;4976103;28;20642;-70
2020/12/10 07:13:13;;;;;;;30.88;14.05;;;;;;;2.32;nan;95486.03;4975133;28;20689;-69
2020/12/10 07:15:40;;;;;;;24.30;12.65;;;;;;;2.33;nan;95485.97;4975041;28;20206;-69
2020/12/10 07:18:07;;;;;;;27.30;12.45;;;;;;;2.24;nan;95480.44;4975244;28;20219;-69
2020/12/10 07:20:34;;;;;;;31.63;15.38;;;;;;;2.11;nan;95469.94;4977999;28;20693;-69
2020/12/10 07:23:02;;;;;;;37.03;14.13;;;;;;;2.32;nan;95486.88;4975460;28;20327;-69
2020/12/10 07:25:32;;;;;;;35.03;13.68;;;;;;;2.28;nan;95476.84;4977413;28;20198;-68
2020/12/10 07:28:00;;;;;;;32.60;14.50;;;;;;;2.31;nan;95490.34;4977103;28;20277;-69
2020/12/10 07:30:30;;;;;;;33.05;14.45;;;;;;;2.11;nan;95493.03;4975487;28;20746;-69
2020/12/10 07:32:58;;;;;;;38.58;16.30;;;;;;;1.76;nan;95491.25;4975440;28;20292;-69
2020/12/10 07:35:31;;;;;;;36.42;15.43;;;;;;;1.60;nan;95480.06;4975419;28;20233;-71
2020/12/10 07:38:08;;;;;;;29.58;13.98;;;;;;;1.82;nan;95488.44;4975546;28;20456;-69
2020/12/10 07:40:35;;;;;;;39.03;17.05;;;;;;;1.90;nan;95483.78;4975763;28;20234;-70
2020/12/10 07:43:04;;;;;;;37.03;17.67;;;;;;;1.83;nan;95477.25;4975102;28;20784;-68
2020/12/10 07:45:30;;;;;;;33.58;15.88;;;;;;;1.92;nan;95478.56;4974196;28;20552;-69
2020/12/10 07:48:00;;;;;;;34.22;16.15;;;;;;;1.64;nan;95476.44;4975203;28;20479;-68
2020/12/10 07:50:29;;;;;;;42.83;16.73;;;;;;;1.46;nan;95481.56;4975573;28;20191;-70
2020/12/10 07:52:57;;;;;;;38.05;15.82;;;;;;;1.33;nan;95486.41;4975122;28;20308;-68
2020/12/10 07:55:26;;;;;;;36.20;16.48;;;;;;;1.46;nan;95486.69;4975423;28;20194;-68
2020/12/10 07:57:59;;;;;;;38.97;15.57;;;;;;;1.50;nan;95483.09;4975035;28;20209;-68
2020/12/10 08:00:30;;;;;;;36.88;16.30;;;;;;;1.42;nan;95485.16;4973994;28;20296;-68
2020/12/10 08:03:11;;;;;;;29.13;14.52;;;;;;;1.60;nan;95480.06;4975168;28;20280;-69
2020/12/10 08:05:43;;;;;;;45.72;17.63;;;;;;;1.81;nan;95480.78;4975151;28;20401;-68
2020/12/10 08:08:10;;;;;;;38.50;15.40;;;;;;;1.79;nan;95478.31;4974612;28;20257;-68
2020/12/10 08:10:39;;;;;;;27.85;14.65;;;;;;;1.84;nan;95478.91;4975103;28;20362;-68
2020/12/10 08:13:14;;;;;;;31.92;15.05;;;;;;;1.68;nan;95470.28;4974760;28;20307;-68
2020/12/10 08:15:43;;;;;;;31.30;13.57;;;;;;;1.79;nan;95480.88;4974508;28;20847;-68
2020/12/10 08:18:12;;;;;;;31.15;13.40;;;;;;;1.85;nan;95482.31;4974921;28;20303;-68
2020/12/10 08:20:43;;;;;;;28.00;13.82;;;;;;;1.76;nan;95478.44;4978147;28;20523;-68
2020/12/10 08:23:10;;;;;;;28.80;14.07;;;;;;;1.92;nan;95476.00;4974605;28;20633;-68
2020/12/10 08:25:38;;;;;;;26.58;12.45;;;;;;;1.87;nan;95476.22;4975991;28;20524;-67
2020/12/10 08:28:06;;;;;;;26.90;12.57;;;;;;;1.68;nan;95480.53;4975728;28;20697;-70
2020/12/10 08:30:33;;;;;;;33.97;13.20;;;;;;;1.53;nan;95470.97;4979317;28;20595;-71
2020/12/10 08:33:02;;;;;;;35.03;15.23;;;;;;;1.56;nan;95473.38;4979013;28;20186;-68
2020/12/10 08:35:40;;;;;;;28.80;12.68;;;;;;;1.60;nan;95480.06;4978080;28;20570;-68
2020/12/10 08:38:07;;;;;;;30.95;13.20;;;;;;;1.65;nan;95485.81;4978142;28;20223;-70
2020/12/10 08:40:34;;;;;;;29.58;14.07;;;;;;;1.64;nan;95486.69;4978795;28;20610;-67
2020/12/10 08:43:09;;;;;;;33.28;13.25;;;;;;;1.80;nan;95490.25;4977333;28;20212;-67
2020/12/10 08:45:43;;;;;;;24.52;12.73;;;;;;;1.70;nan;95495.84;4978136;28;20631;-68
2020/12/10 08:48:11;;;;;;;26.85;12.45;;;;;;;1.72;nan;95488.91;4978166;28;20233;-67
2020/12/10 08:50:51;;;;;;;26.45;12.77;;;;;;;1.73;nan;95485.44;4978542;28;20304;-68
2020/12/10 08:53:18;;;;;;;36.75;14.75;;;;;;;1.73;nan;95486.28;4976532;28;20300;-68
2020/12/10 08:55:47;;;;;;;33.20;13.68;;;;;;;1.88;nan;95490.72;4974630;28;20626;-68
2020/12/10 08:58:16;;;;;;;29.25;12.50;;;;;;;1.95;nan;95474.13;4978177;28;20692;-68
2020/12/10 09:00:43;;;;;;;28.48;12.38;;;;;;;1.97;nan;95485.16;4978248;28;20613;-68
2020/12/10 09:03:11;;;;;;;32.83;14.00;;;;;;;1.68;nan;95488.22;4977351;28;20229;-68
2020/12/10 09:05:38;;;;;;;33.38;13.43;;;;;;;1.38;nan;95481.06;4978142;28;20733;-70
2020/12/10 09:08:04;;;;;;;32.85;14.27;;;;;;;1.24;nan;95489.38;4977564;28;20285;-69
2020/12/10 09:10:32;;;;;;;33.80;14.98;;;;;;;1.16;nan;95494.00;4977737;28;20601;-68
2020/12/10 09:12:59;;;;;;;35.92;15.93;;;;;;;1.16;nan;95490.59;4976073;28;20208;-68
2020/12/10 09:15:38;;;;;;;40.75;17.42;;;;;;;1.22;nan;95488.63;4977337;28;20205;-67
2020/12/10 09:18:05;;;;;;;35.38;15.13;;;;;;;1.28;nan;95495.19;4976665;28;20892;-68
2020/12/10 09:20:32;;;;;;;31.20;13.80;;;;;;;1.30;nan;95489.09;4979341;28;20279;-68
2020/12/10 09:22:59;;;;;;;26.67;13.02;;;;;;;1.32;nan;95487.31;4976833;28;20331;-68
2020/12/10 09:25:26;;;;;;;35.20;15.23;;;;;;;1.36;nan;95482.88;4977193;28;20684;-68
2020/12/10 09:27:52;;;;;;;32.83;14.52;;;;;;;1.42;nan;95485.16;4977227;28;20209;-68
2020/12/10 09:30:21;;;;;;;35.17;14.85;;;;;;;1.45;nan;95487.59;4977549;28;20294;-68
2020/12/10 09:32:48;;;;;;;30.92;14.85;;;;;;;1.58;nan;95484.41;4977419;28;20592;-68
2020/12/10 09:35:16;;;;;;;34.60;15.57;;;;;;;1.56;nan;95488.75;4976172;28;20233;-68
2020/12/10 09:37:44;;;;;;;34.63;13.30;;;;;;;1.59;nan;95486.09;4978051;28;20210;-68
2020/12/10 09:40:12;;;;;;;34.70;15.52;;;;;;;1.67;nan;95491.69;4976302;28;20245;-68
2020/12/10 09:42:40;;;;;;;31.58;14.10;;;;;;;1.71;nan;95487.25;4977822;28;20752;-70
2020/12/10 09:45:11;;;;;;;29.08;12.75;;;;;;;1.88;nan;95479.59;4976320;28;20680;-68
2020/12/10 09:47:38;;;;;;;23.90;12.18;;;;;;;1.94;nan;95469.91;4977891;28;20230;-68
2020/12/10 09:50:06;;;;;;;21.40;10.48;;;;;;;1.91;nan;95475.16;4977027;28;20344;-67
2020/12/10 09:52:37;;;;;;;28.55;12.25;;;;;;;1.99;nan;95475.63;4976772;28;20282;-72
2020/12/10 09:55:10;;;;;;;20.92;10.15;;;;;;;2.03;nan;95472.03;4976472;28;20221;-67
2020/12/10 09:57:36;;;;;;;22.88;8.63;;;;;;;1.96;nan;95468.09;4977283;28;20601;-68
2020/12/10 10:00:07;;;;;;;23.40;8.98;;;;;;;2.08;nan;95470.09;4977296;28;20727;-68
2020/12/10 10:02:34;;;;;;;19.63;9.13;;;;;;;2.06;nan;95468.50;4976587;28;20567;-70
2020/12/10 10:05:00;;;;;;;18.45;8.35;;;;;;;2.17;nan;95461.97;4976005;28;20236;-68
2020/12/10 10:07:27;;;;;;;16.75;8.48;;;;;;;2.09;nan;95458.94;4976682;28;20666;-68
2020/12/10 10:09:54;;;;;;;15.05;7.40;;;;;;;2.08;nan;95456.44;4976855;28;20225;-68
2020/12/10 10:12:22;;;;;;;13.55;7.60;;;;;;;2.16;nan;95460.31;4976357;28;20289;-68
2020/12/10 10:14:49;;;;;;;12.13;7.10;;;;;;;2.12;nan;95463.06;4976934;28;20679;-67
2020/12/10 10:17:16;;;;;;;20.90;9.10;;;;;;;1.91;nan;95464.91;4976428;28;20704;-67
2020/12/10 10:19:42;;;;;;;14.55;8.13;;;;;;;1.79;nan;95462.94;4977623;28;20586;-68
2020/12/10 10:22:10;;;;;;;17.98;8.38;;;;;;;1.84;nan;95465.28;4977060;28;20613;-68
2020/12/10 10:24:37;;;;;;;19.15;7.93;;;;;;;2.03;nan;95463.50;4975639;28;20709;-69
2020/12/10 10:27:04;;;;;;;17.80;8.93;;;;;;;1.98;nan;95465.47;4976861;28;20619;-68
2020/12/10 10:29:32;;;;;;;18.73;8.45;;;;;;;2.03;nan;95461.78;4975835;28;20221;-68
2020/12/10 10:31:59;;;;;;;14.35;7.90;;;;;;;1.85;nan;95462.63;4977067;28;20284;-68
2020/12/10 10:34:26;;;;;;;18.02;8.93;;;;;;;1.75;nan;95463.97;4975307;28;20264;-68
2020/12/10 10:36:53;;;;;;;81.97;13.90;;;;;;;1.66;nan;95468.69;4976868;28;20655;-68
2020/12/10 10:39:20;;;;;;;51.50;12.63;;;;;;;1.83;nan;95467.00;4976197;28;20625;-68
2020/12/10 10:41:49;;;;;;;18.98;9.45;;;;;;;1.56;nan;95468.25;4977188;28;20594;-68
2020/12/10 10:44:16;;;;;;;23.88;9.45;;;;;;;1.58;nan;95471.59;4975117;28;20599;-70
2020/12/10 10:46:44;;;;;;;18.02;9.57;;;;;;;1.56;nan;95465.69;4971886;28;20208;-72
2020/12/10 10:49:13;;;;;;;24.13;11.20;;;;;;;1.50;nan;95463.44;4975767;28;20299;-68
2020/12/10 10:51:39;;;;;;;22.70;10.60;;;;;;;1.43;nan;95459.47;4975397;28;20205;-69
2020/12/10 10:54:06;;;;;;;21.77;10.15;;;;;;;1.44;nan;95457.72;4974189;28;20747;-69
2020/12/10 10:56:33;;;;;;;24.27;10.10;;;;;;;1.48;nan;95454.16;4976020;28;20661;-70
2020/12/10 10:59:00;;;;;;;21.17;10.13;;;;;;;1.59;nan;95457.03;4976110;28;20233;-71
2020/12/10 11:01:27;;;;;;;19.85;10.23;;;;;;;1.47;nan;95450.75;4975590;28;20280;-70
2020/12/10 11:03:56;;;;;;;19.65;9.80;;;;;;;1.31;nan;95447.22;4975292;28;20221;-70
2020/12/10 11:06:23;;;;;;;15.50;8.10;;;;;;;1.36;nan;95449.56;4975844;28;20221;-73
2020/12/10 11:08:54;;;;;;;14.75;7.07;;;;;;;1.47;nan;95453.31;4975391;28;20217;-70
2020/12/10 11:11:21;;;;;;;17.25;7.80;;;;;;;1.48;nan;95454.97;4975790;28;20453;-71
2020/12/10 11:13:49;;;;;;;14.48;8.80;;;;;;;1.49;nan;95458.38;4975290;28;20578;-73
2020/12/10 11:16:16;;;;;;;12.63;6.53;;;;;;;1.57;nan;95457.13;4974657;28;20233;-71
2020/12/10 11:18:45;;;;;;;14.45;7.80;;;;;;;1.68;nan;95454.88;4971467;28;20218;-71
2020/12/10 11:21:13;;;;;;;17.27;6.60;;;;;;;1.77;nan;95445.94;4978185;28;20219;-71
2020/12/10 11:23:41;;;;;;;13.57;7.78;;;;;;;1.75;nan;95448.56;4974228;28;20313;-71
2020/12/10 11:26:09;;;;;;;15.40;7.03;;;;;;;1.73;nan;95447.81;4976060;28;20520;-71
2020/12/10 11:28:36;;;;;;;16.55;8.07;;;;;;;1.88;nan;95444.53;4975460;28;20336;-71
2020/12/10 11:31:03;;;;;;;11.73;7.03;;;;;;;1.97;nan;95438.13;4975133;28;20273;-70
2020/12/10 11:33:30;;;;;;;24.20;8.95;;;;;;;2.02;nan;95442.16;4973558;28;20693;-72
2020/12/10 11:35:56;;;;;;;20.08;8.73;;;;;;;2.05;nan;95439.44;4975368;28;20889;-71
2020/12/10 11:38:24;;;;;;;16.40;7.80;;;;;;;1.99;nan;95444.84;4974506;28;20733;-70
2020/12/10 11:40:51;;;;;;;15.75;8.10;;;;;;;2.01;nan;95448.19;4975973;28;20274;-71
2020/12/10 11:43:18;;;;;;;15.05;7.63;;;;;;;2.22;nan;95446.34;4976107;28;20361;-71
2020/12/10 11:45:45;;;;;;;12.00;6.60;;;;;;;2.34;nan;95449.13;4971619;28;20719;-71
2020/12/10 11:48:12;;;;;;;12.13;6.25;;;;;;;2.23;nan;95443.69;4973862;28;20229;-72
2020/12/10 11:50:39;;;;;;;13.00;6.93;;;;;;;2.32;nan;95447.53;4975474;28;20601;-70